KDUJ/DUJ METAR and TAF weather

Enter ICAO airport designator
Station Type Date Time Source
KDUJ METAR 2021/07/29 07:53 UTC NOAA

KDUJ 290753Z AUTO 13005KT 10SM CLR 18/16 A3000 RMK AO2 SLP145 T01830156


Station Type Date Time Source
KDUJ Decoded METAR 2021/07/29 07:53 UTC NOAA

DU BOIS-JEFFERSON COUNTY, PA, United States (KDUJ) 41-11N 078-53W
Jul 29, 2021 - 03:53 AM EDT / 2021.07.29 0753 UTC
Wind: from the SE (130 degrees) at 6 MPH (5 KT):0
Visibility: 10 mile(s):0
Sky conditions: clear
Temperature: 64.9 F (18.3 C)
Dew Point: 60.1 F (15.6 C)
Relative Humidity: 84%
Pressure (altimeter): 30 in. Hg (1015 hPa)
ob: KDUJ 290753Z AUTO 13005KT 10SM CLR 18/16 A3000 RMK AO2 SLP145 T01830156
cycle: 8

Station Type Date Time Source
KDUJ TAF 2021/07/29 06:22 UTC NOAA

TAF KDUJ 290520Z 2906/3006 00000KT P6SM BKN250
FM291500 21010G18KT P6SM -SHRA OVC040
TEMPO 2916/2918 3SM TSRA OVC025CB
FM292000 26010G20KT P6SM VCTS BKN025CB
FM300000 27009KT P6SM BKN025

Example: see airport list